createdAt,value
2023-05-06T04:56:00.896Z,6.23
2023-05-06T04:59:03.952Z,6.29
2023-05-06T05:02:06.605Z,6.40
2023-05-06T05:05:09.689Z,6.47
2023-05-06T05:08:13.373Z,6.56
2023-05-06T05:11:17.283Z,6.66
2023-05-06T05:14:19.761Z,6.68
2023-05-06T05:17:22.246Z,6.75
2023-05-06T05:20:24.953Z,6.76
2023-05-06T05:23:27.463Z,6.79
2023-05-06T05:55:12.237Z,6.75
2023-05-06T05:58:15.095Z,6.79
2023-05-06T06:14:29.684Z,6.92
2023-05-06T06:17:32.724Z,6.97
2023-05-06T06:28:44.806Z,6.98
2023-05-06T06:38:15.523Z,7.02
2023-05-06T06:41:18.207Z,7.11
2023-05-06T06:44:20.790Z,7.16
2023-05-06T06:47:23.404Z,7.19
2023-05-06T06:50:26.848Z,7.29
2023-05-06T06:53:30.686Z,7.37
2023-05-06T06:56:33.191Z,7.37
2023-05-06T06:59:35.954Z,7.43
2023-05-06T07:02:38.476Z,7.47
2023-05-06T07:05:41.028Z,7.45
2023-05-06T07:08:45.078Z,7.49
2023-05-06T07:11:47.578Z,7.51
2023-05-06T07:14:50.052Z,7.47
2023-05-06T07:17:52.543Z,7.49
2023-05-06T07:20:55.081Z,7.46
2023-05-06T07:23:58.932Z,7.44
2023-05-06T07:27:01.935Z,7.40
2023-05-06T07:30:05.012Z,7.44
2023-05-06T07:33:07.782Z,7.46
2023-05-06T07:36:10.462Z,7.43
2023-05-06T07:39:15.173Z,7.50
2023-05-06T07:42:17.659Z,7.43
2023-05-06T07:45:23.372Z,7.42
2023-05-06T07:48:25.963Z,7.35
2023-05-06T07:51:28.548Z,7.45
2023-05-06T07:54:32.513Z,7.50
2023-05-06T07:57:34.998Z,7.45
2023-05-06T08:00:37.528Z,7.41
2023-05-06T08:03:40.174Z,7.46
2023-05-06T08:06:42.790Z,7.38
2023-05-06T08:09:46.614Z,7.42
2023-05-06T08:12:49.577Z,7.34
2023-05-06T08:15:52.388Z,7.40
2023-05-06T08:18:54.945Z,7.37
2023-05-06T08:21:57.420Z,7.38
2023-05-06T08:25:01.548Z,7.37
2023-05-06T08:28:04.134Z,7.28
2023-05-06T08:31:06.901Z,7.27
2023-05-06T08:34:09.393Z,7.25
2023-05-06T08:37:11.975Z,7.23
2023-05-06T08:40:20.176Z,7.26
2023-05-06T08:43:23.102Z,7.30
2023-05-06T08:46:27.416Z,7.35
2023-05-06T08:49:30.033Z,7.40
2023-05-06T08:52:33.134Z,7.40
2023-05-06T08:55:37.453Z,7.42
2023-05-06T08:58:43.758Z,7.52
2023-05-06T09:01:46.283Z,7.52
2023-05-06T09:04:49.379Z,7.50
2023-05-06T09:07:52.679Z,7.58
2023-05-06T09:10:56.651Z,7.69
2023-05-06T09:14:11.109Z,7.75
2023-05-06T09:17:26.389Z,7.89
2023-05-06T09:20:29.043Z,8.06
2023-05-06T09:23:32.036Z,8.16
2023-05-06T09:26:37.307Z,8.05
2023-05-06T09:29:39.790Z,7.81
2023-05-06T09:32:42.774Z,7.74
2023-05-06T09:35:45.691Z,7.70
2023-05-06T09:38:48.678Z,7.71
2023-05-06T09:41:52.556Z,7.71
2023-05-06T09:44:57.117Z,7.75
2023-05-06T09:48:01.349Z,7.66
2023-05-06T09:51:04.653Z,7.65
2023-05-06T09:54:07.929Z,7.83
2023-05-06T09:57:15.264Z,7.86
2023-05-06T10:00:18.587Z,7.73
2023-05-06T10:03:22.773Z,7.70
2023-05-06T10:06:26.102Z,7.73
2023-05-06T10:09:28.609Z,7.67
2023-05-06T10:12:32.695Z,7.55
2023-05-06T10:15:35.839Z,7.53
2023-05-06T10:18:38.926Z,7.51
2023-05-06T10:21:45.977Z,7.51
2023-05-06T10:24:56.591Z,7.52
2023-05-06T10:28:01.395Z,7.47
2023-05-06T10:31:08.006Z,7.50
2023-05-06T10:34:10.958Z,7.50
2023-05-06T10:37:14.923Z,7.58
2023-05-06T10:40:17.560Z,7.41
2023-05-06T10:43:30.309Z,7.38
2023-05-06T10:46:32.873Z,7.39
2023-05-06T10:49:35.483Z,7.40
2023-05-06T10:52:45.632Z,7.35
2023-05-06T10:55:48.165Z,7.37
2023-05-06T10:58:52.584Z,7.44
2023-05-06T11:01:57.206Z,7.46
2023-05-06T11:05:01.639Z,7.42
2023-05-06T11:08:11.091Z,7.40
2023-05-06T11:11:49.548Z,7.42
2023-05-06T11:14:53.349Z,7.40
2023-05-06T11:17:56.887Z,7.40
2023-05-06T11:21:33.272Z,7.47
2023-05-06T11:24:40.757Z,7.47
2023-05-06T11:27:43.221Z,7.53
2023-05-06T11:30:55.967Z,7.56
2023-05-06T11:34:01.050Z,7.56
2023-05-06T11:37:05.274Z,7.54
2023-05-06T11:40:15.132Z,7.61
2023-05-06T11:43:17.835Z,7.59
2023-05-06T11:46:23.055Z,7.57
2023-05-06T11:49:26.753Z,7.55
2023-05-06T11:52:31.219Z,7.58
2023-05-06T11:55:33.713Z,7.56
2023-05-06T11:58:36.573Z,7.45
2023-05-06T12:01:42.227Z,7.49
2023-05-06T12:04:46.365Z,7.54
2023-05-06T12:07:48.960Z,7.55
2023-05-06T12:10:52.324Z,7.57
2023-05-06T12:25:14.703Z,7.28
2023-05-06T12:34:22.217Z,7.35
2023-05-06T12:37:27.169Z,7.39
2023-05-06T12:40:33.406Z,7.40
2023-05-06T12:43:35.888Z,7.44
2023-05-06T12:46:51.321Z,7.56
2023-05-06T12:49:58.050Z,7.57
2023-05-06T12:53:01.221Z,7.64
2023-05-06T12:56:03.834Z,7.64
2023-05-06T12:59:06.394Z,7.70
2023-05-06T13:02:08.937Z,7.69
2023-05-06T13:05:12.888Z,7.69
2023-05-06T13:08:15.423Z,7.72
2023-05-06T13:11:17.907Z,7.72
2023-05-06T13:14:20.730Z,7.81
2023-05-06T13:17:24.532Z,7.92
2023-05-06T13:20:28.452Z,8.10
2023-05-06T13:23:31.409Z,8.16
2023-05-06T13:26:33.919Z,8.17
2023-05-06T13:29:36.621Z,8.18
2023-05-06T13:32:39.150Z,8.11
2023-05-06T13:35:42.986Z,8.12
2023-05-06T13:38:45.500Z,8.17
2023-05-06T13:41:49.965Z,8.16
2023-05-06T14:24:30.020Z,7.79
2023-05-06T14:33:18.631Z,7.82
2023-05-06T14:42:54.262Z,7.81
2023-05-06T14:51:05.126Z,7.94
2023-05-06T14:54:07.742Z,8.06
2023-05-06T14:57:10.661Z,8.11
2023-05-06T15:00:14.904Z,8.10
2023-05-06T15:03:17.581Z,8.13
2023-05-06T15:06:21.521Z,8.15
2023-05-06T15:09:24.106Z,8.23
2023-05-06T15:12:26.697Z,8.24
